sensor_id;sensor_type;location;lat;lon;timestamp;P1;durP1;ratioP1;P2;durP2;ratioP2
37903;SDS011;23738;50.422;18.758;2023-09-30T00:00:34;12.50;;;11.30;;
37903;SDS011;23738;50.422;18.758;2023-09-30T00:03:03;17.30;;;12.80;;
37903;SDS011;23738;50.422;18.758;2023-09-30T00:05:33;13.10;;;11.00;;
37903;SDS011;23738;50.422;18.758;2023-09-30T00:08:03;21.20;;;12.00;;
37903;SDS011;23738;50.422;18.758;2023-09-30T00:10:33;13.90;;;10.90;;
37903;SDS011;23738;50.422;18.758;2023-09-30T00:13:03;12.40;;;10.90;;
37903;SDS011;23738;50.422;18.758;2023-09-30T00:15:33;14.90;;;12.40;;
37903;SDS011;23738;50.422;18.758;2023-09-30T00:18:04;13.20;;;11.90;;
37903;SDS011;23738;50.422;18.758;2023-09-30T00:20:33;15.40;;;12.80;;
37903;SDS011;23738;50.422;18.758;2023-09-30T00:23:03;16.90;;;12.50;;
37903;SDS011;23738;50.422;18.758;2023-09-30T00:25:33;13.10;;;10.60;;
37903;SDS011;23738;50.422;18.758;2023-09-30T00:28:03;15.10;;;10.10;;
37903;SDS011;23738;50.422;18.758;2023-09-30T00:30:32;12.70;;;11.50;;
37903;SDS011;23738;50.422;18.758;2023-09-30T00:33:02;13.60;;;12.20;;
37903;SDS011;23738;50.422;18.758;2023-09-30T00:35:33;13.60;;;11.30;;
37903;SDS011;23738;50.422;18.758;2023-09-30T00:38:03;13.90;;;11.90;;
37903;SDS011;23738;50.422;18.758;2023-09-30T00:40:32;16.80;;;13.40;;
37903;SDS011;23738;50.422;18.758;2023-09-30T00:43:03;12.70;;;10.20;;
37903;SDS011;23738;50.422;18.758;2023-09-30T00:45:33;10.70;;;9.60;;
37903;SDS011;23738;50.422;18.758;2023-09-30T00:48:05;16.20;;;11.50;;
37903;SDS011;23738;50.422;18.758;2023-09-30T00:50:35;14.90;;;11.80;;
37903;SDS011;23738;50.422;18.758;2023-09-30T00:53:06;13.00;;;11.70;;
37903;SDS011;23738;50.422;18.758;2023-09-30T00:55:36;13.30;;;12.00;;
37903;SDS011;23738;50.422;18.758;2023-09-30T00:58:06;15.40;;;11.80;;
37903;SDS011;23738;50.422;18.758;2023-09-30T01:00:35;12.40;;;10.30;;
37903;SDS011;23738;50.422;18.758;2023-09-30T01:03:05;14.50;;;10.00;;
37903;SDS011;23738;50.422;18.758;2023-09-30T01:05:34;11.30;;;10.10;;
37903;SDS011;23738;50.422;18.758;2023-09-30T01:08:05;16.40;;;10.60;;
37903;SDS011;23738;50.422;18.758;2023-09-30T01:10:35;10.80;;;9.80;;
37903;SDS011;23738;50.422;18.758;2023-09-30T01:13:04;12.10;;;10.70;;
37903;SDS011;23738;50.422;18.758;2023-09-30T01:15:34;13.80;;;10.70;;
37903;SDS011;23738;50.422;18.758;2023-09-30T01:18:04;11.10;;;10.00;;
37903;SDS011;23738;50.422;18.758;2023-09-30T01:20:33;16.70;;;9.40;;
37903;SDS011;23738;50.422;18.758;2023-09-30T01:23:04;9.00;;;8.10;;
37903;SDS011;23738;50.422;18.758;2023-09-30T01:25:34;13.80;;;9.60;;
37903;SDS011;23738;50.422;18.758;2023-09-30T01:28:08;11.30;;;9.90;;
37903;SDS011;23738;50.422;18.758;2023-09-30T01:30:37;10.90;;;9.70;;
37903;SDS011;23738;50.422;18.758;2023-09-30T01:33:10;11.70;;;10.50;;
37903;SDS011;23738;50.422;18.758;2023-09-30T01:35:39;10.40;;;8.80;;
37903;SDS011;23738;50.422;18.758;2023-09-30T01:38:08;15.30;;;8.60;;
37903;SDS011;23738;50.422;18.758;2023-09-30T01:40:37;13.80;;;9.90;;
37903;SDS011;23738;50.422;18.758;2023-09-30T01:43:07;12.20;;;10.50;;
37903;SDS011;23738;50.422;18.758;2023-09-30T01:45:37;12.50;;;11.20;;
37903;SDS011;23738;50.422;18.758;2023-09-30T01:48:06;11.90;;;10.70;;
37903;SDS011;23738;50.422;18.758;2023-09-30T01:50:37;9.80;;;8.80;;
37903;SDS011;23738;50.422;18.758;2023-09-30T01:53:07;10.90;;;7.90;;
37903;SDS011;23738;50.422;18.758;2023-09-30T01:55:36;17.20;;;10.30;;
37903;SDS011;23738;50.422;18.758;2023-09-30T01:58:06;18.50;;;10.90;;
37903;SDS011;23738;50.422;18.758;2023-09-30T02:00:37;12.20;;;9.80;;
37903;SDS011;23738;50.422;18.758;2023-09-30T02:03:06;10.10;;;9.20;;
37903;SDS011;23738;50.422;18.758;2023-09-30T02:05:36;14.10;;;9.70;;
37903;SDS011;23738;50.422;18.758;2023-09-30T02:08:06;9.10;;;7.90;;
37903;SDS011;23738;50.422;18.758;2023-09-30T02:10:35;10.50;;;9.50;;
37903;SDS011;23738;50.422;18.758;2023-09-30T02:13:04;17.20;;;9.70;;
37903;SDS011;23738;50.422;18.758;2023-09-30T02:15:34;11.50;;;10.50;;
37903;SDS011;23738;50.422;18.758;2023-09-30T02:18:07;13.40;;;9.90;;
37903;SDS011;23738;50.422;18.758;2023-09-30T02:20:37;11.30;;;9.30;;
37903;SDS011;23738;50.422;18.758;2023-09-30T02:23:07;9.60;;;8.40;;
37903;SDS011;23738;50.422;18.758;2023-09-30T02:25:38;11.60;;;9.70;;
37903;SDS011;23738;50.422;18.758;2023-09-30T02:28:07;14.20;;;9.60;;
37903;SDS011;23738;50.422;18.758;2023-09-30T02:30:37;10.90;;;9.90;;
37903;SDS011;23738;50.422;18.758;2023-09-30T02:33:06;13.80;;;10.70;;
37903;SDS011;23738;50.422;18.758;2023-09-30T02:35:35;9.10;;;8.30;;
37903;SDS011;23738;50.422;18.758;2023-09-30T02:38:06;14.70;;;8.10;;
37903;SDS011;23738;50.422;18.758;2023-09-30T02:40:35;15.80;;;9.60;;
37903;SDS011;23738;50.422;18.758;2023-09-30T02:43:04;10.40;;;9.00;;
37903;SDS011;23738;50.422;18.758;2023-09-30T02:45:34;15.70;;;10.90;;
37903;SDS011;23738;50.422;18.758;2023-09-30T02:48:04;13.90;;;10.80;;
37903;SDS011;23738;50.422;18.758;2023-09-30T02:50:35;9.70;;;8.70;;
37903;SDS011;23738;50.422;18.758;2023-09-30T02:53:04;15.10;;;8.00;;
37903;SDS011;23738;50.422;18.758;2023-09-30T02:55:34;10.90;;;9.60;;
37903;SDS011;23738;50.422;18.758;2023-09-30T02:58:03;14.70;;;10.10;;
37903;SDS011;23738;50.422;18.758;2023-09-30T03:00:33;11.70;;;10.20;;
37903;SDS011;23738;50.422;18.758;2023-09-30T03:03:04;13.20;;;11.10;;
37903;SDS011;23738;50.422;18.758;2023-09-30T03:05:35;12.60;;;9.60;;
37903;SDS011;23738;50.422;18.758;2023-09-30T03:08:05;11.10;;;9.30;;
37903;SDS011;23738;50.422;18.758;2023-09-30T03:10:34;11.20;;;10.10;;
37903;SDS011;23738;50.422;18.758;2023-09-30T03:13:06;11.90;;;10.00;;
37903;SDS011;23738;50.422;18.758;2023-09-30T03:15:36;11.20;;;10.10;;
37903;SDS011;23738;50.422;18.758;2023-09-30T03:18:06;13.80;;;10.90;;
37903;SDS011;23738;50.422;18.758;2023-09-30T03:20:35;13.70;;;8.90;;
37903;SDS011;23738;50.422;18.758;2023-09-30T03:23:07;9.40;;;8.50;;
37903;SDS011;23738;50.422;18.758;2023-09-30T03:25:36;10.40;;;9.40;;
37903;SDS011;23738;50.422;18.758;2023-09-30T03:28:06;11.80;;;10.60;;
37903;SDS011;23738;50.422;18.758;2023-09-30T03:30:35;12.20;;;11.10;;
37903;SDS011;23738;50.422;18.758;2023-09-30T03:33:04;12.40;;;11.10;;
37903;SDS011;23738;50.422;18.758;2023-09-30T03:35:34;10.70;;;9.60;;
37903;SDS011;23738;50.422;18.758;2023-09-30T03:38:04;12.20;;;9.60;;
37903;SDS011;23738;50.422;18.758;2023-09-30T03:40:33;17.20;;;10.70;;
37903;SDS011;23738;50.422;18.758;2023-09-30T03:43:05;11.20;;;10.10;;
37903;SDS011;23738;50.422;18.758;2023-09-30T03:45:35;11.70;;;9.70;;
37903;SDS011;23738;50.422;18.758;2023-09-30T03:48:06;12.10;;;10.80;;
37903;SDS011;23738;50.422;18.758;2023-09-30T03:50:36;13.30;;;9.50;;
37903;SDS011;23738;50.422;18.758;2023-09-30T03:53:06;10.50;;;8.20;;
37903;SDS011;23738;50.422;18.758;2023-09-30T03:55:36;8.40;;;7.60;;
37903;SDS011;23738;50.422;18.758;2023-09-30T03:58:06;10.30;;;9.30;;
37903;SDS011;23738;50.422;18.758;2023-09-30T04:00:35;9.50;;;8.60;;
37903;SDS011;23738;50.422;18.758;2023-09-30T04:03:04;9.60;;;8.70;;
37903;SDS011;23738;50.422;18.758;2023-09-30T04:05:34;14.30;;;9.80;;
37903;SDS011;23738;50.422;18.758;2023-09-30T04:08:04;9.30;;;8.40;;
37903;SDS011;23738;50.422;18.758;2023-09-30T04:10:34;8.40;;;7.20;;
37903;SDS011;23738;50.422;18.758;2023-09-30T04:13:04;11.10;;;6.50;;
37903;SDS011;23738;50.422;18.758;2023-09-30T04:15:33;11.00;;;8.20;;
37903;SDS011;23738;50.422;18.758;2023-09-30T04:18:04;9.20;;;8.10;;
37903;SDS011;23738;50.422;18.758;2023-09-30T04:20:34;8.90;;;7.70;;
37903;SDS011;23738;50.422;18.758;2023-09-30T04:23:06;9.50;;;8.00;;
37903;SDS011;23738;50.422;18.758;2023-09-30T04:25:36;9.10;;;6.90;;
37903;SDS011;23738;50.422;18.758;2023-09-30T04:28:06;7.00;;;6.40;;
37903;SDS011;23738;50.422;18.758;2023-09-30T04:30:35;9.10;;;8.10;;
37903;SDS011;23738;50.422;18.758;2023-09-30T04:33:05;9.40;;;8.30;;
37903;SDS011;23738;50.422;18.758;2023-09-30T04:35:35;9.00;;;7.60;;
37903;SDS011;23738;50.422;18.758;2023-09-30T04:38:04;8.30;;;7.50;;
37903;SDS011;23738;50.422;18.758;2023-09-30T04:40:34;8.00;;;6.70;;
37903;SDS011;23738;50.422;18.758;2023-09-30T04:43:04;6.10;;;5.60;;
37903;SDS011;23738;50.422;18.758;2023-09-30T04:45:33;10.70;;;8.40;;
37903;SDS011;23738;50.422;18.758;2023-09-30T04:48:03;8.40;;;7.30;;
37903;SDS011;23738;50.422;18.758;2023-09-30T04:50:33;12.00;;;8.80;;
37903;SDS011;23738;50.422;18.758;2023-09-30T04:53:04;8.70;;;8.00;;
37903;SDS011;23738;50.422;18.758;2023-09-30T04:55:34;11.20;;;8.80;;
37903;SDS011;23738;50.422;18.758;2023-09-30T04:58:04;9.40;;;6.90;;
37903;SDS011;23738;50.422;18.758;2023-09-30T05:00:35;8.20;;;7.50;;
37903;SDS011;23738;50.422;18.758;2023-09-30T05:03:05;11.80;;;8.00;;
37903;SDS011;23738;50.422;18.758;2023-09-30T05:05:34;8.90;;;8.20;;
37903;SDS011;23738;50.422;18.758;2023-09-30T05:08:04;9.30;;;8.30;;
37903;SDS011;23738;50.422;18.758;2023-09-30T05:10:34;8.10;;;7.10;;
37903;SDS011;23738;50.422;18.758;2023-09-30T05:13:04;7.50;;;6.00;;
37903;SDS011;23738;50.422;18.758;2023-09-30T05:15:34;8.60;;;7.50;;
37903;SDS011;23738;50.422;18.758;2023-09-30T05:18:04;9.40;;;8.40;;
37903;SDS011;23738;50.422;18.758;2023-09-30T05:20:34;11.00;;;9.30;;
37903;SDS011;23738;50.422;18.758;2023-09-30T05:23:05;8.70;;;7.90;;
37903;SDS011;23738;50.422;18.758;2023-09-30T05:25:35;7.50;;;6.80;;
37903;SDS011;23738;50.422;18.758;2023-09-30T05:28:04;7.40;;;6.80;;
37903;SDS011;23738;50.422;18.758;2023-09-30T05:30:35;11.60;;;7.20;;
37903;SDS011;23738;50.422;18.758;2023-09-30T05:33:05;11.00;;;7.60;;
37903;SDS011;23738;50.422;18.758;2023-09-30T05:35:40;9.00;;;7.70;;
37903;SDS011;23738;50.422;18.758;2023-09-30T05:38:10;11.10;;;9.10;;
37903;SDS011;23738;50.422;18.758;2023-09-30T05:40:39;9.20;;;8.40;;
37903;SDS011;23738;50.422;18.758;2023-09-30T05:43:10;11.50;;;8.10;;
37903;SDS011;23738;50.422;18.758;2023-09-30T05:45:40;8.40;;;7.50;;
37903;SDS011;23738;50.422;18.758;2023-09-30T05:48:15;8.30;;;7.20;;
37903;SDS011;23738;50.422;18.758;2023-09-30T05:50:45;9.80;;;8.80;;
37903;SDS011;23738;50.422;18.758;2023-09-30T05:53:14;13.80;;;9.00;;
37903;SDS011;23738;50.422;18.758;2023-09-30T05:55:43;13.40;;;8.80;;
37903;SDS011;23738;50.422;18.758;2023-09-30T05:58:13;10.40;;;9.40;;
37903;SDS011;23738;50.422;18.758;2023-09-30T06:00:43;12.50;;;7.60;;
37903;SDS011;23738;50.422;18.758;2023-09-30T06:03:12;10.90;;;6.80;;
37903;SDS011;23738;50.422;18.758;2023-09-30T06:05:42;8.30;;;7.60;;
37903;SDS011;23738;50.422;18.758;2023-09-30T06:08:11;10.40;;;9.40;;
37903;SDS011;23738;50.422;18.758;2023-09-30T06:10:41;9.00;;;8.10;;
37903;SDS011;23738;50.422;18.758;2023-09-30T06:13:12;13.00;;;8.70;;
37903;SDS011;23738;50.422;18.758;2023-09-30T06:15:42;9.30;;;7.80;;
37903;SDS011;23738;50.422;18.758;2023-09-30T06:18:13;13.00;;;8.90;;
37903;SDS011;23738;50.422;18.758;2023-09-30T06:20:42;9.40;;;7.80;;
37903;SDS011;23738;50.422;18.758;2023-09-30T06:23:12;12.00;;;9.60;;
37903;SDS011;23738;50.422;18.758;2023-09-30T06:25:42;15.20;;;11.90;;
37903;SDS011;23738;50.422;18.758;2023-09-30T06:28:12;13.20;;;12.00;;
37903;SDS011;23738;50.422;18.758;2023-09-30T06:30:41;16.80;;;10.30;;
37903;SDS011;23738;50.422;18.758;2023-09-30T06:33:12;10.40;;;9.40;;
37903;SDS011;23738;50.422;18.758;2023-09-30T06:35:42;12.80;;;11.40;;
37903;SDS011;23738;50.422;18.758;2023-09-30T06:38:17;18.60;;;13.10;;
37903;SDS011;23738;50.422;18.758;2023-09-30T06:40:47;47.70;;;30.40;;
37903;SDS011;23738;50.422;18.758;2023-09-30T06:43:16;42.80;;;27.90;;
37903;SDS011;23738;50.422;18.758;2023-09-30T06:45:45;61.60;;;39.80;;
37903;SDS011;23738;50.422;18.758;2023-09-30T06:48:15;28.20;;;18.00;;
37903;SDS011;23738;50.422;18.758;2023-09-30T06:50:45;15.50;;;13.30;;
37903;SDS011;23738;50.422;18.758;2023-09-30T06:53:15;15.40;;;13.40;;
37903;SDS011;23738;50.422;18.758;2023-09-30T06:55:48;17.20;;;13.20;;
37903;SDS011;23738;50.422;18.758;2023-09-30T06:58:19;15.90;;;14.20;;
37903;SDS011;23738;50.422;18.758;2023-09-30T07:00:48;16.30;;;13.70;;
37903;SDS011;23738;50.422;18.758;2023-09-30T07:03:19;15.80;;;14.20;;
37903;SDS011;23738;50.422;18.758;2023-09-30T07:05:49;14.10;;;11.60;;
37903;SDS011;23738;50.422;18.758;2023-09-30T07:08:20;11.70;;;10.60;;
37903;SDS011;23738;50.422;18.758;2023-09-30T07:10:49;12.00;;;10.60;;
37903;SDS011;23738;50.422;18.758;2023-09-30T07:13:19;10.20;;;9.30;;
37903;SDS011;23738;50.422;18.758;2023-09-30T07:15:48;12.20;;;10.90;;
37903;SDS011;23738;50.422;18.758;2023-09-30T07:18:18;14.80;;;11.80;;
37903;SDS011;23738;50.422;18.758;2023-09-30T07:20:47;11.80;;;10.70;;
37903;SDS011;23738;50.422;18.758;2023-09-30T07:23:17;13.00;;;10.80;;
37903;SDS011;23738;50.422;18.758;2023-09-30T07:25:46;15.70;;;9.80;;
37903;SDS011;23738;50.422;18.758;2023-09-30T07:28:16;11.80;;;9.00;;
37903;SDS011;23738;50.422;18.758;2023-09-30T07:30:45;12.50;;;9.80;;
37903;SDS011;23738;50.422;18.758;2023-09-30T07:33:14;15.50;;;9.90;;
37903;SDS011;23738;50.422;18.758;2023-09-30T07:35:44;16.10;;;10.80;;
37903;SDS011;23738;50.422;18.758;2023-09-30T07:38:14;12.70;;;10.30;;
37903;SDS011;23738;50.422;18.758;2023-09-30T07:40:43;9.90;;;8.90;;
37903;SDS011;23738;50.422;18.758;2023-09-30T07:43:13;13.40;;;9.90;;
37903;SDS011;23738;50.422;18.758;2023-09-30T07:45:44;16.50;;;11.00;;
37903;SDS011;23738;50.422;18.758;2023-09-30T07:48:13;11.80;;;10.70;;
37903;SDS011;23738;50.422;18.758;2023-09-30T07:50:44;13.60;;;11.70;;
37903;SDS011;23738;50.422;18.758;2023-09-30T07:53:14;12.60;;;10.80;;
37903;SDS011;23738;50.422;18.758;2023-09-30T07:55:43;10.70;;;9.60;;
37903;SDS011;23738;50.422;18.758;2023-09-30T07:58:13;13.50;;;9.70;;
37903;SDS011;23738;50.422;18.758;2023-09-30T08:00:43;12.80;;;11.50;;
37903;SDS011;23738;50.422;18.758;2023-09-30T08:03:14;12.70;;;11.60;;
37903;SDS011;23738;50.422;18.758;2023-09-30T08:05:44;12.60;;;11.40;;
37903;SDS011;23738;50.422;18.758;2023-09-30T08:08:14;12.70;;;11.50;;
37903;SDS011;23738;50.422;18.758;2023-09-30T08:10:43;11.20;;;10.10;;
37903;SDS011;23738;50.422;18.758;2023-09-30T08:13:13;11.70;;;10.50;;
37903;SDS011;23738;50.422;18.758;2023-09-30T08:15:44;12.10;;;10.90;;
37903;SDS011;23738;50.422;18.758;2023-09-30T08:18:14;12.70;;;11.50;;
37903;SDS011;23738;50.422;18.758;2023-09-30T08:20:44;13.40;;;12.10;;
37903;SDS011;23738;50.422;18.758;2023-09-30T08:23:15;12.40;;;10.70;;
37903;SDS011;23738;50.422;18.758;2023-09-30T08:25:44;11.60;;;9.00;;
37903;SDS011;23738;50.422;18.758;2023-09-30T08:28:14;9.10;;;8.20;;
37903;SDS011;23738;50.422;18.758;2023-09-30T08:30:44;10.10;;;9.10;;
37903;SDS011;23738;50.422;18.758;2023-09-30T08:33:14;9.40;;;8.50;;
37903;SDS011;23738;50.422;18.758;2023-09-30T08:35:44;10.50;;;9.60;;
37903;SDS011;23738;50.422;18.758;2023-09-30T08:38:15;11.10;;;10.20;;
37903;SDS011;23738;50.422;18.758;2023-09-30T08:40:45;10.40;;;9.50;;
37903;SDS011;23738;50.422;18.758;2023-09-30T08:43:16;8.40;;;7.70;;
37903;SDS011;23738;50.422;18.758;2023-09-30T08:45:54;9.40;;;8.20;;
37903;SDS011;23738;50.422;18.758;2023-09-30T08:48:23;8.50;;;7.70;;
37903;SDS011;23738;50.422;18.758;2023-09-30T08:50:56;10.20;;;9.20;;
37903;SDS011;23738;50.422;18.758;2023-09-30T08:53:28;10.90;;;9.90;;
37903;SDS011;23738;50.422;18.758;2023-09-30T08:55:59;9.30;;;8.40;;
37903;SDS011;23738;50.422;18.758;2023-09-30T08:58:36;11.50;;;8.20;;
37903;SDS011;23738;50.422;18.758;2023-09-30T09:01:06;9.90;;;7.90;;
37903;SDS011;23738;50.422;18.758;2023-09-30T09:03:39;7.70;;;6.90;;
37903;SDS011;23738;50.422;18.758;2023-09-30T09:06:09;9.00;;;8.20;;
37903;SDS011;23738;50.422;18.758;2023-09-30T09:08:39;11.40;;;8.80;;
37903;SDS011;23738;50.422;18.758;2023-09-30T09:11:09;8.40;;;7.30;;
37903;SDS011;23738;50.422;18.758;2023-09-30T09:13:46;8.50;;;6.90;;
37903;SDS011;23738;50.422;18.758;2023-09-30T09:16:17;8.90;;;7.20;;
37903;SDS011;23738;50.422;18.758;2023-09-30T09:18:47;8.20;;;7.00;;
37903;SDS011;23738;50.422;18.758;2023-09-30T09:21:18;9.70;;;7.80;;
37903;SDS011;23738;50.422;18.758;2023-09-30T09:23:51;9.80;;;7.30;;
37903;SDS011;23738;50.422;18.758;2023-09-30T09:26:25;9.30;;;8.30;;
37903;SDS011;23738;50.422;18.758;2023-09-30T09:28:57;9.20;;;7.50;;
37903;SDS011;23738;50.422;18.758;2023-09-30T09:31:28;9.10;;;7.00;;
37903;SDS011;23738;50.422;18.758;2023-09-30T09:34:02;7.10;;;6.40;;
37903;SDS011;23738;50.422;18.758;2023-09-30T09:36:42;8.00;;;6.70;;
37903;SDS011;23738;50.422;18.758;2023-09-30T09:39:12;7.70;;;6.60;;
37903;SDS011;23738;50.422;18.758;2023-09-30T09:41:52;9.70;;;7.90;;
37903;SDS011;23738;50.422;18.758;2023-09-30T09:44:24;9.20;;;7.70;;
37903;SDS011;23738;50.422;18.758;2023-09-30T09:46:55;8.10;;;7.20;;
37903;SDS011;23738;50.422;18.758;2023-09-30T09:49:30;8.30;;;7.50;;
37903;SDS011;23738;50.422;18.758;2023-09-30T09:52:01;8.00;;;6.70;;
37903;SDS011;23738;50.422;18.758;2023-09-30T09:54:31;8.50;;;6.50;;
37903;SDS011;23738;50.422;18.758;2023-09-30T09:57:02;7.50;;;6.80;;
37903;SDS011;23738;50.422;18.758;2023-09-30T10:02:09;7.50;;;6.60;;
37903;SDS011;23738;50.422;18.758;2023-09-30T10:04:49;7.30;;;6.50;;
37903;SDS011;23738;50.422;18.758;2023-09-30T10:07:24;7.70;;;6.90;;
37903;SDS011;23738;50.422;18.758;2023-09-30T10:09:58;8.10;;;6.10;;
37903;SDS011;23738;50.422;18.758;2023-09-30T10:12:37;7.10;;;5.60;;
37903;SDS011;23738;50.422;18.758;2023-09-30T10:18:08;5.30;;;4.50;;
37903;SDS011;23738;50.422;18.758;2023-09-30T10:20:39;5.60;;;4.50;;
37903;SDS011;23738;50.422;18.758;2023-09-30T10:23:21;6.00;;;4.90;;
37903;SDS011;23738;50.422;18.758;2023-09-30T10:25:54;6.00;;;4.70;;
37903;SDS011;23738;50.422;18.758;2023-09-30T10:28:45;7.60;;;5.00;;
37903;SDS011;23738;50.422;18.758;2023-09-30T10:31:17;5.80;;;5.10;;
37903;SDS011;23738;50.422;18.758;2023-09-30T10:36:51;6.80;;;4.50;;
37903;SDS011;23738;50.422;18.758;2023-09-30T10:48:34;5.10;;;3.90;;
37903;SDS011;23738;50.422;18.758;2023-09-30T10:53:54;5.80;;;3.10;;
37903;SDS011;23738;50.422;18.758;2023-09-30T10:56:32;7.30;;;3.40;;
37903;SDS011;23738;50.422;18.758;2023-09-30T10:59:01;5.20;;;3.10;;
37903;SDS011;23738;50.422;18.758;2023-09-30T11:01:33;6.50;;;3.30;;
37903;SDS011;23738;50.422;18.758;2023-09-30T11:04:03;4.80;;;3.10;;
37903;SDS011;23738;50.422;18.758;2023-09-30T11:06:35;5.30;;;3.40;;
37903;SDS011;23738;50.422;18.758;2023-09-30T11:09:09;5.80;;;3.90;;
37903;SDS011;23738;50.422;18.758;2023-09-30T11:11:44;5.20;;;2.90;;
37903;SDS011;23738;50.422;18.758;2023-09-30T11:14:19;6.40;;;2.90;;
37903;SDS011;23738;50.422;18.758;2023-09-30T11:16:50;5.50;;;2.40;;
37903;SDS011;23738;50.422;18.758;2023-09-30T11:19:21;7.10;;;2.50;;
37903;SDS011;23738;50.422;18.758;2023-09-30T11:21:52;7.30;;;2.90;;
37903;SDS011;23738;50.422;18.758;2023-09-30T11:24:23;6.70;;;3.10;;
37903;SDS011;23738;50.422;18.758;2023-09-30T11:26:55;4.90;;;2.80;;
37903;SDS011;23738;50.422;18.758;2023-09-30T11:29:24;8.20;;;2.50;;
37903;SDS011;23738;50.422;18.758;2023-09-30T11:31:54;4.80;;;2.50;;
37903;SDS011;23738;50.422;18.758;2023-09-30T11:34:32;6.50;;;2.70;;
37903;SDS011;23738;50.422;18.758;2023-09-30T11:37:04;6.10;;;3.10;;
37903;SDS011;23738;50.422;18.758;2023-09-30T11:39:33;4.90;;;3.10;;
37903;SDS011;23738;50.422;18.758;2023-09-30T11:42:12;8.70;;;3.20;;
37903;SDS011;23738;50.422;18.758;2023-09-30T11:44:47;6.60;;;2.80;;
37903;SDS011;23738;50.422;18.758;2023-09-30T11:47:17;6.10;;;2.70;;
37903;SDS011;23738;50.422;18.758;2023-09-30T11:49:59;9.40;;;3.40;;
37903;SDS011;23738;50.422;18.758;2023-09-30T11:52:31;5.90;;;3.20;;
37903;SDS011;23738;50.422;18.758;2023-09-30T11:55:02;4.50;;;2.90;;
37903;SDS011;23738;50.422;18.758;2023-09-30T11:57:35;6.90;;;3.20;;
37903;SDS011;23738;50.422;18.758;2023-09-30T12:00:06;7.30;;;3.60;;
37903;SDS011;23738;50.422;18.758;2023-09-30T12:02:40;7.70;;;2.90;;
37903;SDS011;23738;50.422;18.758;2023-09-30T12:05:09;8.20;;;3.60;;
37903;SDS011;23738;50.422;18.758;2023-09-30T12:07:39;7.50;;;3.70;;
37903;SDS011;23738;50.422;18.758;2023-09-30T12:10:09;8.20;;;3.10;;
37903;SDS011;23738;50.422;18.758;2023-09-30T12:12:41;5.70;;;3.30;;
37903;SDS011;23738;50.422;18.758;2023-09-30T12:15:11;7.60;;;3.90;;
37903;SDS011;23738;50.422;18.758;2023-09-30T12:17:40;7.00;;;3.10;;
37903;SDS011;23738;50.422;18.758;2023-09-30T12:20:10;4.40;;;3.20;;
37903;SDS011;23738;50.422;18.758;2023-09-30T12:22:42;6.70;;;3.60;;
37903;SDS011;23738;50.422;18.758;2023-09-30T12:25:11;8.10;;;4.10;;
37903;SDS011;23738;50.422;18.758;2023-09-30T12:27:41;6.00;;;3.60;;
37903;SDS011;23738;50.422;18.758;2023-09-30T12:30:13;7.50;;;3.70;;
37903;SDS011;23738;50.422;18.758;2023-09-30T12:32:43;6.70;;;3.90;;
37903;SDS011;23738;50.422;18.758;2023-09-30T12:35:12;6.20;;;3.70;;
37903;SDS011;23738;50.422;18.758;2023-09-30T12:37:41;6.70;;;3.70;;
37903;SDS011;23738;50.422;18.758;2023-09-30T12:40:12;9.90;;;3.30;;
37903;SDS011;23738;50.422;18.758;2023-09-30T12:42:43;5.70;;;2.70;;
37903;SDS011;23738;50.422;18.758;2023-09-30T12:45:13;12.30;;;3.40;;
37903;SDS011;23738;50.422;18.758;2023-09-30T12:47:44;6.10;;;3.80;;
37903;SDS011;23738;50.422;18.758;2023-09-30T12:50:14;7.50;;;3.60;;
37903;SDS011;23738;50.422;18.758;2023-09-30T12:52:43;6.10;;;3.30;;
37903;SDS011;23738;50.422;18.758;2023-09-30T12:55:13;5.80;;;3.00;;
37903;SDS011;23738;50.422;18.758;2023-09-30T12:57:42;7.60;;;2.60;;
37903;SDS011;23738;50.422;18.758;2023-09-30T13:00:12;7.10;;;3.60;;
37903;SDS011;23738;50.422;18.758;2023-09-30T13:02:43;4.90;;;3.00;;
37903;SDS011;23738;50.422;18.758;2023-09-30T13:05:12;4.70;;;3.40;;
37903;SDS011;23738;50.422;18.758;2023-09-30T13:07:43;5.20;;;3.40;;
37903;SDS011;23738;50.422;18.758;2023-09-30T13:10:12;6.40;;;3.40;;
37903;SDS011;23738;50.422;18.758;2023-09-30T13:12:42;4.20;;;2.60;;
37903;SDS011;23738;50.422;18.758;2023-09-30T13:15:11;5.90;;;3.20;;
37903;SDS011;23738;50.422;18.758;2023-09-30T13:17:41;7.00;;;3.50;;
37903;SDS011;23738;50.422;18.758;2023-09-30T13:20:12;7.90;;;3.50;;
37903;SDS011;23738;50.422;18.758;2023-09-30T13:22:41;5.20;;;3.00;;
37903;SDS011;23738;50.422;18.758;2023-09-30T13:25:10;6.20;;;3.60;;
37903;SDS011;23738;50.422;18.758;2023-09-30T13:27:40;5.50;;;3.80;;
37903;SDS011;23738;50.422;18.758;2023-09-30T13:30:10;4.10;;;3.20;;
37903;SDS011;23738;50.422;18.758;2023-09-30T13:32:40;7.30;;;4.00;;
37903;SDS011;23738;50.422;18.758;2023-09-30T13:35:09;6.90;;;3.80;;
37903;SDS011;23738;50.422;18.758;2023-09-30T13:37:38;5.90;;;3.80;;
37903;SDS011;23738;50.422;18.758;2023-09-30T13:40:09;7.50;;;3.70;;
37903;SDS011;23738;50.422;18.758;2023-09-30T13:42:39;5.40;;;3.10;;
37903;SDS011;23738;50.422;18.758;2023-09-30T13:45:10;4.60;;;3.40;;
37903;SDS011;23738;50.422;18.758;2023-09-30T13:47:40;7.10;;;3.10;;
37903;SDS011;23738;50.422;18.758;2023-09-30T13:50:09;5.70;;;2.80;;
37903;SDS011;23738;50.422;18.758;2023-09-30T13:52:39;6.50;;;3.00;;
37903;SDS011;23738;50.422;18.758;2023-09-30T13:55:08;6.00;;;2.50;;
37903;SDS011;23738;50.422;18.758;2023-09-30T13:57:38;7.90;;;2.60;;
37903;SDS011;23738;50.422;18.758;2023-09-30T14:00:10;6.10;;;2.50;;
37903;SDS011;23738;50.422;18.758;2023-09-30T14:02:40;5.00;;;2.00;;
37903;SDS011;23738;50.422;18.758;2023-09-30T14:05:10;5.30;;;2.30;;
37903;SDS011;23738;50.422;18.758;2023-09-30T14:07:40;6.70;;;2.40;;
37903;SDS011;23738;50.422;18.758;2023-09-30T14:10:10;8.30;;;2.60;;
37903;SDS011;23738;50.422;18.758;2023-09-30T14:12:39;4.90;;;2.30;;
37903;SDS011;23738;50.422;18.758;2023-09-30T14:15:10;4.90;;;1.90;;
37903;SDS011;23738;50.422;18.758;2023-09-30T14:17:39;5.30;;;2.00;;
37903;SDS011;23738;50.422;18.758;2023-09-30T14:20:09;4.80;;;1.90;;
37903;SDS011;23738;50.422;18.758;2023-09-30T14:22:39;5.70;;;2.10;;
37903;SDS011;23738;50.422;18.758;2023-09-30T14:25:09;6.00;;;2.20;;
37903;SDS011;23738;50.422;18.758;2023-09-30T14:30:27;4.90;;;2.30;;
37903;SDS011;23738;50.422;18.758;2023-09-30T14:33:07;5.60;;;3.10;;
37903;SDS011;23738;50.422;18.758;2023-09-30T14:36:51;7.00;;;2.80;;
37903;SDS011;23738;50.422;18.758;2023-09-30T14:39:29;7.40;;;2.80;;
37903;SDS011;23738;50.422;18.758;2023-09-30T14:43:10;8.90;;;2.60;;
37903;SDS011;23738;50.422;18.758;2023-09-30T14:46:31;6.00;;;2.60;;
37903;SDS011;23738;50.422;18.758;2023-09-30T14:49:01;7.90;;;3.00;;
37903;SDS011;23738;50.422;18.758;2023-09-30T14:51:49;6.30;;;2.40;;
37903;SDS011;23738;50.422;18.758;2023-09-30T14:54:19;6.60;;;2.40;;
37903;SDS011;23738;50.422;18.758;2023-09-30T14:56:53;8.90;;;2.30;;
37903;SDS011;23738;50.422;18.758;2023-09-30T14:59:23;4.80;;;2.70;;
37903;SDS011;23738;50.422;18.758;2023-09-30T15:01:52;3.80;;;2.00;;
37903;SDS011;23738;50.422;18.758;2023-09-30T15:04:24;4.60;;;2.00;;
37903;SDS011;23738;50.422;18.758;2023-09-30T15:06:54;5.90;;;2.60;;
37903;SDS011;23738;50.422;18.758;2023-09-30T15:09:27;5.90;;;2.00;;
37903;SDS011;23738;50.422;18.758;2023-09-30T15:11:57;5.90;;;2.20;;